createdAt,value
2022-12-01T00:01:27.403Z,47.92
2022-12-01T00:03:54.662Z,49.75
2022-12-01T00:06:22.625Z,47.58
2022-12-01T00:09:14.007Z,48.67
2022-12-01T00:11:42.392Z,44.95
2022-12-01T00:14:09.654Z,46.10
2022-12-01T00:16:36.857Z,45.72
2022-12-01T00:19:04.150Z,48.20
2022-12-01T00:21:31.127Z,46.92
2022-12-01T00:23:59.366Z,48.70
2022-12-01T00:26:27.695Z,48.15
2022-12-01T00:28:58.893Z,52.33
2022-12-01T00:31:26.715Z,50.72
2022-12-01T00:33:54.154Z,48.95
2022-12-01T00:36:22.195Z,51.00
2022-12-01T00:38:54.119Z,49.22
2022-12-01T00:41:22.877Z,47.50
2022-12-01T00:43:50.779Z,47.08
2022-12-01T00:46:18.814Z,44.78
2022-12-01T00:48:46.036Z,47.15
2022-12-01T00:51:13.079Z,42.20
2022-12-01T00:53:40.951Z,43.58
2022-12-01T00:56:08.545Z,44.28
2022-12-01T00:58:35.745Z,46.47
2022-12-01T01:01:04.121Z,44.70
2022-12-01T01:03:33.006Z,42.03
2022-12-01T01:06:09.992Z,42.20
2022-12-01T01:08:37.759Z,43.80
2022-12-01T01:11:06.621Z,44.05
2022-12-01T01:13:34.957Z,44.83
2022-12-01T01:16:10.850Z,44.25
2022-12-01T01:18:38.055Z,45.65
2022-12-01T01:21:10.622Z,43.08
2022-12-01T01:23:38.478Z,45.15
2022-12-01T01:26:37.079Z,41.97
2022-12-01T01:29:07.736Z,45.40
2022-12-01T01:31:35.496Z,46.60
2022-12-01T01:34:03.435Z,49.08
2022-12-01T01:36:30.996Z,51.55
2022-12-01T01:38:58.068Z,49.80
2022-12-01T01:41:25.419Z,53.20
2022-12-01T01:43:56.859Z,53.03
2022-12-01T01:46:30.310Z,51.05
2022-12-01T01:49:10.998Z,50.05
2022-12-01T01:51:48.623Z,53.25
2022-12-01T01:54:31.811Z,54.97
2022-12-01T01:57:00.907Z,46.65
2022-12-01T01:59:35.195Z,54.72
2022-12-01T02:02:13.273Z,49.20
2022-12-01T02:04:57.190Z,55.90
2022-12-01T02:07:25.434Z,59.05
2022-12-01T02:09:53.990Z,50.63
2022-12-01T02:12:54.568Z,57.25
2022-12-01T02:15:55.956Z,53.42
2022-12-01T02:18:32.008Z,51.67
2022-12-01T02:21:29.975Z,51.95
2022-12-01T02:24:41.814Z,53.38
2022-12-01T02:27:36.527Z,52.40
2022-12-01T02:33:11.181Z,51.40
2022-12-01T02:35:43.989Z,54.05
2022-12-01T02:38:17.017Z,48.67
2022-12-01T02:40:54.562Z,49.50
2022-12-01T02:43:32.583Z,48.85
2022-12-01T02:46:09.793Z,51.17
2022-12-01T02:48:43.114Z,49.38
2022-12-01T02:51:18.395Z,50.08
2022-12-01T02:53:46.122Z,47.65
2022-12-01T02:56:16.121Z,46.60
2022-12-01T02:58:44.394Z,50.85
2022-12-01T03:01:12.059Z,49.53
2022-12-01T03:04:02.959Z,47.58
2022-12-01T03:06:56.386Z,49.05
2022-12-01T03:10:12.148Z,47.90
2022-12-01T03:13:23.189Z,48.53
2022-12-01T03:16:14.204Z,48.10
2022-12-01T03:18:53.470Z,42.72
2022-12-01T03:21:34.622Z,46.13
2022-12-01T03:24:11.908Z,44.25
2022-12-01T03:26:42.098Z,38.10
2022-12-01T03:29:15.995Z,50.30
2022-12-01T03:31:50.976Z,42.70
2022-12-01T03:34:49.997Z,45.70
2022-12-01T03:37:28.366Z,45.55
2022-12-01T03:40:00.588Z,45.90
2022-12-01T03:42:37.644Z,46.90
2022-12-01T03:45:16.773Z,45.97
2022-12-01T03:47:44.574Z,42.38
2022-12-01T03:50:14.266Z,50.45
2022-12-01T03:53:02.335Z,47.05
2022-12-01T03:55:32.870Z,46.45
2022-12-01T03:58:11.154Z,44.30
2022-12-01T04:00:39.119Z,41.17
2022-12-01T04:03:06.545Z,46.63
2022-12-01T04:05:35.372Z,53.05
2022-12-01T04:08:02.796Z,47.25
2022-12-01T04:10:29.885Z,46.83
2022-12-01T04:12:59.733Z,46.35
2022-12-01T04:15:29.614Z,45.97
2022-12-01T04:17:56.675Z,48.13
2022-12-01T04:20:23.765Z,46.20
2022-12-01T04:22:50.949Z,48.08
2022-12-01T04:25:18.072Z,45.45
2022-12-01T04:27:45.127Z,46.30
2022-12-01T04:30:12.905Z,44.95
2022-12-01T04:32:43.942Z,49.00
2022-12-01T04:35:13.078Z,48.95
2022-12-01T04:37:41.079Z,45.55
2022-12-01T04:40:09.488Z,45.47
2022-12-01T04:42:36.801Z,44.05
2022-12-01T04:45:04.444Z,45.80
2022-12-01T04:47:31.478Z,45.72
2022-12-01T04:49:58.498Z,48.53
2022-12-01T04:52:27.462Z,45.83
2022-12-01T04:54:58.004Z,45.72
2022-12-01T04:57:25.342Z,50.97
2022-12-01T04:59:52.554Z,46.88
2022-12-01T05:02:19.771Z,45.00
2022-12-01T05:04:48.270Z,47.72
2022-12-01T05:07:15.595Z,47.63
2022-12-01T05:09:42.648Z,48.30
2022-12-01T05:12:09.613Z,48.00
2022-12-01T05:14:36.663Z,48.30
2022-12-01T05:17:03.795Z,43.83
2022-12-01T05:19:49.439Z,46.47
2022-12-01T05:22:16.743Z,38.25
2022-12-01T05:24:44.685Z,46.58
2022-12-01T05:27:11.861Z,46.78
2022-12-01T05:29:39.469Z,46.67
2022-12-01T05:32:06.727Z,48.78
2022-12-01T05:34:33.842Z,48.22
2022-12-01T05:37:00.960Z,48.35
2022-12-01T05:39:28.335Z,48.90
2022-12-01T05:41:55.592Z,52.67
2022-12-01T05:44:22.654Z,45.72
2022-12-01T05:46:49.797Z,50.00
2022-12-01T05:49:17.392Z,49.13
2022-12-01T05:51:44.776Z,48.50
2022-12-01T05:54:11.767Z,55.38
2022-12-01T05:56:38.930Z,57.63
2022-12-01T05:59:06.416Z,46.55
2022-12-01T06:01:34.123Z,51.65
2022-12-01T06:04:01.752Z,56.97
2022-12-01T06:06:28.893Z,52.63
2022-12-01T06:08:55.943Z,51.55
2022-12-01T06:11:27.164Z,50.15
2022-12-01T06:13:54.238Z,52.08
2022-12-01T06:16:21.372Z,50.90
2022-12-01T06:18:48.472Z,56.45
2022-12-01T06:21:15.467Z,49.10
2022-12-01T06:23:42.523Z,49.85
2022-12-01T06:26:09.802Z,52.08
2022-12-01T06:28:36.918Z,48.05
2022-12-01T06:31:04.245Z,52.90
2022-12-01T06:33:32.830Z,56.25
2022-12-01T06:36:03.989Z,56.33
2022-12-01T06:38:34.109Z,48.63
2022-12-01T06:41:01.707Z,54.75
2022-12-01T06:43:29.962Z,52.50
2022-12-01T06:46:01.693Z,48.95
2022-12-01T06:48:30.089Z,53.38
2022-12-01T06:51:01.777Z,51.45
2022-12-01T06:53:29.706Z,57.08
2022-12-01T06:56:02.097Z,50.97
2022-12-01T06:58:30.348Z,49.28
2022-12-01T07:00:59.372Z,52.08
2022-12-01T07:03:27.198Z,55.25
2022-12-01T07:06:01.992Z,52.42
2022-12-01T07:08:31.162Z,53.10
2022-12-01T07:11:08.319Z,48.65
2022-12-01T07:13:40.030Z,70.18
2022-12-01T07:16:08.804Z,61.90
2022-12-01T07:18:38.693Z,56.40
2022-12-01T07:21:08.715Z,59.05
2022-12-01T07:23:36.752Z,58.38
2022-12-01T07:26:07.697Z,52.83
2022-12-01T07:28:34.741Z,49.85
2022-12-01T07:31:22.077Z,56.08
2022-12-01T07:33:49.263Z,53.58
2022-12-01T07:36:16.421Z,54.60
2022-12-01T07:38:43.718Z,52.70
2022-12-01T07:41:15.102Z,52.83
2022-12-01T07:43:43.311Z,52.72
2022-12-01T07:46:22.270Z,51.08
2022-12-01T07:48:51.780Z,55.15
2022-12-01T07:51:19.490Z,56.55
2022-12-01T07:53:49.444Z,56.67
2022-12-01T07:56:17.926Z,56.40
2022-12-01T07:58:45.712Z,56.35
2022-12-01T08:01:17.763Z,60.70
2022-12-01T08:03:45.340Z,55.35
2022-12-01T08:06:12.722Z,52.70
2022-12-01T08:08:41.450Z,58.10
2022-12-01T08:11:23.569Z,57.38
2022-12-01T08:13:53.785Z,57.90
2022-12-01T08:16:23.724Z,54.63
2022-12-01T08:18:51.082Z,56.00
2022-12-01T08:21:21.192Z,54.45
2022-12-01T08:23:51.907Z,53.65
2022-12-01T08:26:20.539Z,56.72
2022-12-01T08:28:48.764Z,53.60
2022-12-01T08:31:27.687Z,56.38
2022-12-01T08:33:55.129Z,58.45
2022-12-01T08:36:23.292Z,53.63
2022-12-01T08:38:54.162Z,55.45
2022-12-01T08:41:22.078Z,52.65
2022-12-01T08:43:58.056Z,56.47
2022-12-01T08:46:28.960Z,54.63
2022-12-01T08:48:57.664Z,55.42
2022-12-01T08:51:28.263Z,58.10
2022-12-01T08:53:57.866Z,54.05
2022-12-01T08:56:32.988Z,53.45
2022-12-01T08:59:00.428Z,55.42
2022-12-01T09:01:28.854Z,49.67
2022-12-01T09:04:08.962Z,51.17
2022-12-01T09:06:44.988Z,49.50
2022-12-01T09:09:24.977Z,49.38
2022-12-01T09:11:52.855Z,53.45
2022-12-01T09:14:21.612Z,53.63
2022-12-01T09:16:50.508Z,56.15
2022-12-01T09:19:24.076Z,57.20
2022-12-01T09:21:52.493Z,54.45
2022-12-01T09:24:19.669Z,53.50
2022-12-01T09:26:47.276Z,55.38
2022-12-01T09:29:16.905Z,53.85
2022-12-01T09:31:44.181Z,57.22
2022-12-01T09:34:17.074Z,54.33
2022-12-01T09:36:45.306Z,53.13
2022-12-01T09:39:15.533Z,56.15
2022-12-01T09:41:45.562Z,56.55
2022-12-01T09:44:29.023Z,56.80
2022-12-01T09:47:08.991Z,56.25
2022-12-01T09:49:56.686Z,53.40
2022-12-01T09:52:27.213Z,56.90
2022-12-01T09:54:56.367Z,56.60
2022-12-01T09:57:36.818Z,56.17
2022-12-01T10:00:26.412Z,55.15
2022-12-01T10:03:25.516Z,55.65
2022-12-01T10:06:25.904Z,57.13
2022-12-01T10:08:58.488Z,58.22
2022-12-01T10:11:40.634Z,58.92
2022-12-01T10:14:20.021Z,61.53
2022-12-01T10:17:33.145Z,60.28
2022-12-01T10:20:22.867Z,59.15
2022-12-01T10:23:29.394Z,60.78
2022-12-01T10:29:00.653Z,59.35
2022-12-01T10:31:45.005Z,51.05
2022-12-01T10:34:38.088Z,60.35
2022-12-01T10:37:06.305Z,61.25
2022-12-01T10:39:43.783Z,57.95
2022-12-01T10:42:36.382Z,62.72
2022-12-01T10:45:10.618Z,62.45
2022-12-01T10:50:05.352Z,59.00
2022-12-01T10:52:33.934Z,62.00
2022-12-01T10:55:03.145Z,61.55
2022-12-01T10:57:32.040Z,62.40
2022-12-01T11:00:07.407Z,62.95
2022-12-01T11:02:37.157Z,63.88
2022-12-01T11:05:18.812Z,62.42
2022-12-01T11:07:47.814Z,65.00
2022-12-01T11:10:42.478Z,61.72
2022-12-01T11:13:29.904Z,62.15
2022-12-01T11:16:00.526Z,60.08
2022-12-01T11:18:37.631Z,57.38
2022-12-01T11:21:28.916Z,57.17
2022-12-01T11:23:56.848Z,62.47
2022-12-01T11:26:30.716Z,67.40
2022-12-01T11:29:01.001Z,58.67
2022-12-01T11:31:41.667Z,61.35
2022-12-01T11:34:19.612Z,60.92
2022-12-01T11:36:53.518Z,59.70
2022-12-01T11:39:32.547Z,62.38
2022-12-01T11:42:26.085Z,59.55
2022-12-01T11:45:00.798Z,58.90
2022-12-01T11:47:28.717Z,58.47
2022-12-01T11:50:02.916Z,54.40
2022-12-01T11:52:36.644Z,56.60
2022-12-01T11:55:26.462Z,61.17
2022-12-01T11:57:58.169Z,58.13
2022-12-01T12:00:46.073Z,60.55
2022-12-01T12:03:19.060Z,57.83
2022-12-01T12:06:38.488Z,57.38
2022-12-01T12:09:52.007Z,56.10
2022-12-01T12:12:35.595Z,54.60
2022-12-01T12:15:17.682Z,55.35
2022-12-01T12:18:14.276Z,55.83
2022-12-01T12:20:47.027Z,52.22
2022-12-01T12:23:42.744Z,50.72
2022-12-01T12:26:34.987Z,52.17
2022-12-01T12:29:35.207Z,48.35
2022-12-01T12:32:34.315Z,51.40
2022-12-01T12:35:25.289Z,49.63
2022-12-01T12:38:36.750Z,47.75
2022-12-01T12:41:23.024Z,52.42
2022-12-01T12:44:13.004Z,45.13
2022-12-01T12:47:05.328Z,47.78
2022-12-01T12:49:39.825Z,49.53
2022-12-01T12:52:17.960Z,49.25
2022-12-01T12:54:55.071Z,49.88
2022-12-01T12:57:30.525Z,47.67
2022-12-01T13:00:04.179Z,50.35
2022-12-01T13:03:08.445Z,48.97
2022-12-01T13:06:07.313Z,48.80
2022-12-01T13:08:53.707Z,49.33
2022-12-01T13:11:33.626Z,47.75
2022-12-01T13:14:24.933Z,49.25
2022-12-01T13:16:58.450Z,45.00
2022-12-01T13:19:36.686Z,47.60
2022-12-01T13:22:07.208Z,47.63
2022-12-01T13:24:34.654Z,46.22
2022-12-01T13:27:11.144Z,46.53
2022-12-01T13:29:48.932Z,46.90
2022-12-01T13:32:37.502Z,47.70
2022-12-01T13:35:31.620Z,48.65
2022-12-01T13:38:25.429Z,47.50
2022-12-01T13:41:31.015Z,46.08
2022-12-01T13:44:22.787Z,46.85
2022-12-01T13:47:12.253Z,46.60
2022-12-01T13:49:51.606Z,45.53
2022-12-01T13:52:21.844Z,44.17
2022-12-01T13:55:09.998Z,46.03
2022-12-01T13:57:45.108Z,45.97
2022-12-01T14:00:30.516Z,43.67
2022-12-01T14:03:37.539Z,46.33
2022-12-01T14:06:22.045Z,45.97
2022-12-01T14:08:50.857Z,42.47
2022-12-01T14:11:29.698Z,45.05
2022-12-01T14:14:12.233Z,43.33
2022-12-01T14:16:50.473Z,46.03
2022-12-01T14:19:37.369Z,44.10
2022-12-01T14:22:06.786Z,43.30
2022-12-01T14:24:41.814Z,45.83
2022-12-01T14:27:14.371Z,46.20
2022-12-01T14:29:43.281Z,45.63
2022-12-01T14:32:10.296Z,45.30
2022-12-01T14:34:38.523Z,47.40
2022-12-01T14:37:13.379Z,44.92
2022-12-01T14:39:57.270Z,47.25
2022-12-01T14:42:52.803Z,48.03
2022-12-01T14:45:53.061Z,49.30
2022-12-01T14:48:31.983Z,46.40
2022-12-01T14:51:35.180Z,48.10
2022-12-01T14:54:10.359Z,48.38
2022-12-01T14:56:37.809Z,52.60
2022-12-01T14:59:21.963Z,49.28
2022-12-01T15:01:53.376Z,48.97
2022-12-01T15:04:20.551Z,46.67
2022-12-01T15:06:56.514Z,50.25
2022-12-01T15:09:35.487Z,52.25
2022-12-01T15:12:07.735Z,50.47
2022-12-01T15:14:48.798Z,53.15
2022-12-01T15:17:31.289Z,49.83
2022-12-01T15:19:58.955Z,50.22
2022-12-01T15:22:31.705Z,52.22
2022-12-01T15:25:15.247Z,50.88
2022-12-01T15:27:44.052Z,52.58
2022-12-01T15:30:19.206Z,52.00
2022-12-01T15:32:46.789Z,53.20
2022-12-01T15:35:22.000Z,49.97
2022-12-01T15:37:51.596Z,53.17
2022-12-01T15:41:06.282Z,51.35
2022-12-01T15:43:21.966Z,48.38
2022-12-01T15:45:57.909Z,50.15
2022-12-01T15:48:34.406Z,54.38
2022-12-01T15:51:19.381Z,51.38
2022-12-01T15:53:53.968Z,51.83
2022-12-01T15:56:36.885Z,50.97
2022-12-01T15:59:15.435Z,53.20
2022-12-01T16:01:44.603Z,53.25
2022-12-01T16:04:22.495Z,54.83
2022-12-01T16:07:09.134Z,54.28
2022-12-01T16:09:57.050Z,52.05
2022-12-01T16:12:36.871Z,52.75
2022-12-01T16:15:18.486Z,55.40
2022-12-01T16:17:52.664Z,55.00
2022-12-01T16:20:32.205Z,55.42
2022-12-01T16:23:03.361Z,55.97
2022-12-01T16:25:38.703Z,54.42
2022-12-01T16:28:27.890Z,57.22
2022-12-01T16:30:55.112Z,54.72
2022-12-01T16:33:26.566Z,54.85
2022-12-01T16:35:54.770Z,56.45
2022-12-01T16:38:25.264Z,54.28
2022-12-01T16:41:01.662Z,51.70
2022-12-01T16:43:29.775Z,50.05
2022-12-01T16:46:06.689Z,55.45
2022-12-01T16:48:35.100Z,51.80
2022-12-01T16:51:05.298Z,55.10
2022-12-01T16:53:32.379Z,57.33
2022-12-01T16:56:03.426Z,56.45
2022-12-01T16:58:31.315Z,58.05
2022-12-01T17:00:59.123Z,58.90
2022-12-01T17:03:28.293Z,59.72
2022-12-01T17:05:55.656Z,59.30
2022-12-01T17:08:23.275Z,61.17
2022-12-01T17:10:52.166Z,62.28
2022-12-01T17:13:23.506Z,58.08
2022-12-01T17:15:54.150Z,58.08
2022-12-01T17:18:23.208Z,59.05
2022-12-01T17:21:02.419Z,59.45
2022-12-01T17:23:29.903Z,57.75
2022-12-01T17:25:57.272Z,59.90
2022-12-01T17:28:24.486Z,60.25
2022-12-01T17:30:51.649Z,60.45
2022-12-01T17:33:18.989Z,63.90
2022-12-01T17:35:46.064Z,58.55
2022-12-01T17:38:13.130Z,57.47
2022-12-01T17:40:40.174Z,57.20
2022-12-01T17:43:08.605Z,57.17
2022-12-01T17:45:41.945Z,56.63
2022-12-01T17:48:09.155Z,54.58
2022-12-01T17:50:38.064Z,57.83
2022-12-01T17:53:05.052Z,59.63
2022-12-01T17:55:32.143Z,59.13
2022-12-01T17:57:59.317Z,57.38
2022-12-01T18:00:26.688Z,59.28
2022-12-01T18:02:53.933Z,56.25
2022-12-01T18:05:21.043Z,60.00
2022-12-01T18:07:48.417Z,58.55
2022-12-01T18:10:15.760Z,58.60
2022-12-01T18:12:42.858Z,59.80
2022-12-01T18:15:11.064Z,58.30
2022-12-01T18:17:38.565Z,61.88
2022-12-01T18:20:07.661Z,57.40
2022-12-01T18:22:34.708Z,57.28
2022-12-01T18:25:01.746Z,58.15
2022-12-01T18:27:30.497Z,56.67
2022-12-01T18:29:57.562Z,55.25
2022-12-01T18:32:24.604Z,55.13
2022-12-01T18:34:52.069Z,57.17
2022-12-01T18:37:19.330Z,58.08
2022-12-01T18:39:46.495Z,56.70
2022-12-01T18:42:13.547Z,55.75
2022-12-01T18:44:42.320Z,55.25
2022-12-01T18:47:09.744Z,51.30
2022-12-01T18:49:36.798Z,50.15
2022-12-01T18:52:04.910Z,49.70
2022-12-01T18:54:32.143Z,52.55
2022-12-01T18:56:59.449Z,53.30
2022-12-01T18:59:27.183Z,53.95
2022-12-01T19:01:55.214Z,53.90
2022-12-01T19:04:23.879Z,55.92
2022-12-01T19:06:51.277Z,58.33
2022-12-01T19:09:18.488Z,59.42
2022-12-01T19:11:46.149Z,57.97
2022-12-01T19:14:17.697Z,60.05
2022-12-01T19:16:46.962Z,60.70
2022-12-01T19:19:14.204Z,58.20
2022-12-01T19:21:42.928Z,58.25
2022-12-01T19:24:10.158Z,57.53
2022-12-01T19:26:37.486Z,58.78
2022-12-01T19:29:05.335Z,58.10
2022-12-01T19:31:32.596Z,56.80
2022-12-01T19:34:03.740Z,64.65
2022-12-01T19:36:31.578Z,62.80
2022-12-01T19:39:00.632Z,70.13
2022-12-01T19:41:29.697Z,68.97
2022-12-01T19:43:58.085Z,67.35
2022-12-01T19:46:27.675Z,60.33
2022-12-01T19:49:00.201Z,62.17
2022-12-01T19:51:37.654Z,62.53
2022-12-01T19:54:08.094Z,61.95
2022-12-01T19:56:35.429Z,62.97
2022-12-01T19:59:03.243Z,61.83
2022-12-01T20:01:31.011Z,61.90
2022-12-01T20:03:58.189Z,63.45
2022-12-01T20:06:29.782Z,63.60
2022-12-01T20:09:01.095Z,61.50
2022-12-01T20:11:35.512Z,63.08
2022-12-01T20:14:05.035Z,59.28
2022-12-01T20:16:32.435Z,61.17
2022-12-01T20:19:04.858Z,63.42
2022-12-01T20:21:39.753Z,60.80
2022-12-01T20:24:10.507Z,58.75
2022-12-01T20:26:45.042Z,59.88
2022-12-01T20:29:30.068Z,61.03
2022-12-01T20:34:36.471Z,61.70
2022-12-01T20:37:04.520Z,59.90
2022-12-01T20:39:34.678Z,61.88
2022-12-01T20:42:02.729Z,60.15
2022-12-01T20:44:31.309Z,57.22
2022-12-01T20:46:58.452Z,57.47
2022-12-01T20:49:26.387Z,58.63
2022-12-01T20:51:53.832Z,57.88
2022-12-01T20:54:29.783Z,59.05
2022-12-01T20:56:59.691Z,57.95
2022-12-01T20:59:28.129Z,55.13
2022-12-01T21:01:56.175Z,51.60
2022-12-01T21:04:23.713Z,51.17
2022-12-01T21:06:58.816Z,54.05
2022-12-01T21:09:28.186Z,52.05
2022-12-01T21:12:17.713Z,52.95
2022-12-01T21:14:49.281Z,53.25
2022-12-01T21:17:34.716Z,51.80
2022-12-01T21:20:22.103Z,54.60
2022-12-01T21:22:50.506Z,53.40
2022-12-01T21:25:24.058Z,51.78
2022-12-01T21:27:52.150Z,55.88
2022-12-01T21:30:25.007Z,50.92
2022-12-01T21:32:52.502Z,54.70
2022-12-01T21:35:24.986Z,56.28
2022-12-01T21:38:00.705Z,52.22
2022-12-01T21:40:30.957Z,50.75
2022-12-01T21:43:16.959Z,50.08
2022-12-01T21:45:44.282Z,50.10
2022-12-01T21:48:23.495Z,48.72
2022-12-01T21:51:02.133Z,50.30
2022-12-01T21:53:38.440Z,49.72
2022-12-01T21:56:05.952Z,50.75
2022-12-01T21:58:37.134Z,50.63
2022-12-01T22:01:19.932Z,49.55
2022-12-01T22:03:47.728Z,47.05
2022-12-01T22:06:30.313Z,49.13
2022-12-01T22:09:34.779Z,48.25
2022-12-01T22:12:12.987Z,47.67
2022-12-01T22:14:40.099Z,48.78
2022-12-01T22:17:07.159Z,50.63
2022-12-01T22:19:37.191Z,49.25
2022-12-01T22:22:16.283Z,48.10
2022-12-01T22:24:49.845Z,49.22
2022-12-01T22:27:39.273Z,48.92
2022-12-01T22:30:06.413Z,51.75
2022-12-01T22:33:05.124Z,50.22
2022-12-01T22:35:48.320Z,49.05
2022-12-01T22:38:37.598Z,49.47
2022-12-01T22:41:14.037Z,48.55
2022-12-01T22:43:50.314Z,49.42
2022-12-01T22:46:32.598Z,48.85
2022-12-01T22:49:22.429Z,50.92
2022-12-01T22:52:01.571Z,46.70
2022-12-01T22:54:33.232Z,49.35
2022-12-01T22:57:03.438Z,45.00
2022-12-01T22:59:38.029Z,48.10
2022-12-01T23:02:21.514Z,48.75
2022-12-01T23:05:01.539Z,50.00
2022-12-01T23:07:35.725Z,47.28
2022-12-01T23:10:12.918Z,46.45
2022-12-01T23:12:40.733Z,44.97
2022-12-01T23:15:35.465Z,47.13
2022-12-01T23:18:22.793Z,44.80
2022-12-01T23:20:56.612Z,45.63
2022-12-01T23:23:36.004Z,46.58
2022-12-01T23:26:07.896Z,46.53
2022-12-01T23:28:37.321Z,45.15
2022-12-01T23:31:05.198Z,43.53
2022-12-01T23:33:34.270Z,44.65
2022-12-01T23:36:20.732Z,45.08
2022-12-01T23:38:52.192Z,47.15
2022-12-01T23:41:33.133Z,44.42
2022-12-01T23:44:18.928Z,40.40
2022-12-01T23:46:48.081Z,42.97
2022-12-01T23:49:20.483Z,44.80
2022-12-01T23:51:51.652Z,46.65
2022-12-01T23:54:32.439Z,44.25
2022-12-01T23:57:11.717Z,45.80
2022-12-01T23:59:38.960Z,44.22
